sensor_id;sensor_type;location;lat;lon;timestamp;P1;durP1;ratioP1;P2;durP2;ratioP2
2944;SDS011;1482;51.398;7.128;2023-04-15T00:01:18;11.60;;;8.40;;
2944;SDS011;1482;51.398;7.128;2023-04-15T00:03:44;12.23;;;8.27;;
2944;SDS011;1482;51.398;7.128;2023-04-15T00:06:11;13.90;;;8.40;;
2944;SDS011;1482;51.398;7.128;2023-04-15T00:08:37;12.00;;;8.77;;
2944;SDS011;1482;51.398;7.128;2023-04-15T00:11:03;11.77;;;8.20;;
2944;SDS011;1482;51.398;7.128;2023-04-15T00:13:29;9.90;;;7.50;;
2944;SDS011;1482;51.398;7.128;2023-04-15T00:15:56;14.80;;;7.97;;
2944;SDS011;1482;51.398;7.128;2023-04-15T00:18:22;14.20;;;8.70;;
2944;SDS011;1482;51.398;7.128;2023-04-15T00:20:48;13.33;;;7.63;;
2944;SDS011;1482;51.398;7.128;2023-04-15T00:23:14;12.97;;;8.67;;
2944;SDS011;1482;51.398;7.128;2023-04-15T00:25:39;14.13;;;8.13;;
2944;SDS011;1482;51.398;7.128;2023-04-15T00:28:05;11.03;;;7.00;;
2944;SDS011;1482;51.398;7.128;2023-04-15T00:30:31;10.47;;;7.77;;
2944;SDS011;1482;51.398;7.128;2023-04-15T00:32:56;16.57;;;7.40;;
2944;SDS011;1482;51.398;7.128;2023-04-15T00:35:22;13.13;;;7.50;;
2944;SDS011;1482;51.398;7.128;2023-04-15T00:37:47;11.40;;;7.83;;
2944;SDS011;1482;51.398;7.128;2023-04-15T00:40:13;12.93;;;7.57;;
2944;SDS011;1482;51.398;7.128;2023-04-15T00:42:42;10.33;;;7.50;;
2944;SDS011;1482;51.398;7.128;2023-04-15T00:45:08;13.60;;;8.27;;
2944;SDS011;1482;51.398;7.128;2023-04-15T00:47:35;13.10;;;9.27;;
2944;SDS011;1482;51.398;7.128;2023-04-15T00:50:01;13.67;;;8.80;;
2944;SDS011;1482;51.398;7.128;2023-04-15T00:52:27;10.00;;;7.40;;
2944;SDS011;1482;51.398;7.128;2023-04-15T00:54:52;9.93;;;6.47;;
2944;SDS011;1482;51.398;7.128;2023-04-15T00:57:19;12.07;;;9.20;;
2944;SDS011;1482;51.398;7.128;2023-04-15T00:59:46;14.70;;;8.80;;
2944;SDS011;1482;51.398;7.128;2023-04-15T01:02:11;12.40;;;8.50;;
2944;SDS011;1482;51.398;7.128;2023-04-15T01:04:37;10.23;;;7.60;;
2944;SDS011;1482;51.398;7.128;2023-04-15T01:07:02;9.10;;;7.10;;
2944;SDS011;1482;51.398;7.128;2023-04-15T01:09:28;19.43;;;8.13;;
2944;SDS011;1482;51.398;7.128;2023-04-15T01:11:53;11.70;;;7.27;;
2944;SDS011;1482;51.398;7.128;2023-04-15T01:14:20;9.67;;;7.90;;
2944;SDS011;1482;51.398;7.128;2023-04-15T01:16:45;11.57;;;8.90;;
2944;SDS011;1482;51.398;7.128;2023-04-15T01:19:11;14.90;;;8.30;;
2944;SDS011;1482;51.398;7.128;2023-04-15T01:21:40;14.87;;;8.83;;
2944;SDS011;1482;51.398;7.128;2023-04-15T01:24:08;10.90;;;8.97;;
2944;SDS011;1482;51.398;7.128;2023-04-15T01:26:37;10.93;;;9.10;;
2944;SDS011;1482;51.398;7.128;2023-04-15T01:29:04;16.03;;;10.20;;
2944;SDS011;1482;51.398;7.128;2023-04-15T01:31:30;13.23;;;9.10;;
2944;SDS011;1482;51.398;7.128;2023-04-15T01:33:57;12.23;;;9.50;;
2944;SDS011;1482;51.398;7.128;2023-04-15T01:36:23;19.77;;;9.90;;
2944;SDS011;1482;51.398;7.128;2023-04-15T01:38:48;10.67;;;9.37;;
2944;SDS011;1482;51.398;7.128;2023-04-15T01:41:15;18.17;;;10.17;;
2944;SDS011;1482;51.398;7.128;2023-04-15T01:43:41;16.40;;;9.80;;
2944;SDS011;1482;51.398;7.128;2023-04-15T01:46:06;12.10;;;10.73;;
2944;SDS011;1482;51.398;7.128;2023-04-15T01:48:32;12.70;;;10.20;;
2944;SDS011;1482;51.398;7.128;2023-04-15T01:50:58;16.57;;;10.10;;
2944;SDS011;1482;51.398;7.128;2023-04-15T01:53:24;22.80;;;11.00;;
2944;SDS011;1482;51.398;7.128;2023-04-15T01:55:50;16.10;;;10.23;;
2944;SDS011;1482;51.398;7.128;2023-04-15T01:58:16;18.17;;;9.80;;
2944;SDS011;1482;51.398;7.128;2023-04-15T02:00:43;19.73;;;11.03;;
2944;SDS011;1482;51.398;7.128;2023-04-15T02:03:09;13.50;;;9.93;;
2944;SDS011;1482;51.398;7.128;2023-04-15T02:05:34;14.97;;;10.07;;
2944;SDS011;1482;51.398;7.128;2023-04-15T02:08:00;14.90;;;11.40;;
2944;SDS011;1482;51.398;7.128;2023-04-15T02:10:26;13.37;;;10.00;;
2944;SDS011;1482;51.398;7.128;2023-04-15T02:12:51;18.30;;;11.37;;
2944;SDS011;1482;51.398;7.128;2023-04-15T02:15:18;15.40;;;10.80;;
2944;SDS011;1482;51.398;7.128;2023-04-15T02:17:44;16.50;;;11.00;;
2944;SDS011;1482;51.398;7.128;2023-04-15T02:20:14;14.23;;;11.20;;
2944;SDS011;1482;51.398;7.128;2023-04-15T02:22:42;11.87;;;9.87;;
2944;SDS011;1482;51.398;7.128;2023-04-15T02:25:08;15.50;;;11.47;;
2944;SDS011;1482;51.398;7.128;2023-04-15T02:27:34;16.87;;;11.90;;
2944;SDS011;1482;51.398;7.128;2023-04-15T02:30:00;16.33;;;11.30;;
2944;SDS011;1482;51.398;7.128;2023-04-15T02:32:26;17.10;;;11.93;;
2944;SDS011;1482;51.398;7.128;2023-04-15T02:34:52;21.97;;;13.10;;
2944;SDS011;1482;51.398;7.128;2023-04-15T02:37:18;15.43;;;11.67;;
2944;SDS011;1482;51.398;7.128;2023-04-15T02:39:44;14.13;;;10.50;;
2944;SDS011;1482;51.398;7.128;2023-04-15T02:42:10;16.33;;;12.47;;
2944;SDS011;1482;51.398;7.128;2023-04-15T02:44:37;20.33;;;11.50;;
2944;SDS011;1482;51.398;7.128;2023-04-15T02:47:02;18.57;;;12.20;;
2944;SDS011;1482;51.398;7.128;2023-04-15T02:49:30;17.93;;;10.87;;
2944;SDS011;1482;51.398;7.128;2023-04-15T02:51:56;19.00;;;11.50;;
2944;SDS011;1482;51.398;7.128;2023-04-15T02:54:22;12.97;;;11.03;;
2944;SDS011;1482;51.398;7.128;2023-04-15T02:56:49;16.80;;;11.27;;
2944;SDS011;1482;51.398;7.128;2023-04-15T02:59:16;18.80;;;11.87;;
2944;SDS011;1482;51.398;7.128;2023-04-15T03:01:41;18.40;;;12.40;;
2944;SDS011;1482;51.398;7.128;2023-04-15T03:04:07;19.83;;;11.27;;
2944;SDS011;1482;51.398;7.128;2023-04-15T03:06:33;17.20;;;12.50;;
2944;SDS011;1482;51.398;7.128;2023-04-15T03:08:59;17.67;;;11.87;;
2944;SDS011;1482;51.398;7.128;2023-04-15T03:11:26;15.23;;;11.70;;
2944;SDS011;1482;51.398;7.128;2023-04-15T03:13:52;17.47;;;11.70;;
2944;SDS011;1482;51.398;7.128;2023-04-15T03:16:18;19.50;;;12.77;;
2944;SDS011;1482;51.398;7.128;2023-04-15T03:18:44;15.57;;;13.40;;
2944;SDS011;1482;51.398;7.128;2023-04-15T03:21:09;18.17;;;12.73;;
2944;SDS011;1482;51.398;7.128;2023-04-15T03:23:35;15.43;;;12.37;;
2944;SDS011;1482;51.398;7.128;2023-04-15T03:26:01;18.60;;;12.33;;
2944;SDS011;1482;51.398;7.128;2023-04-15T03:28:27;16.30;;;13.60;;
2944;SDS011;1482;51.398;7.128;2023-04-15T03:30:53;16.07;;;12.63;;
2944;SDS011;1482;51.398;7.128;2023-04-15T03:33:19;19.53;;;12.10;;
2944;SDS011;1482;51.398;7.128;2023-04-15T03:35:45;22.33;;;13.53;;
2944;SDS011;1482;51.398;7.128;2023-04-15T03:38:10;19.80;;;12.40;;
2944;SDS011;1482;51.398;7.128;2023-04-15T03:40:36;17.60;;;12.73;;
2944;SDS011;1482;51.398;7.128;2023-04-15T03:43:02;22.97;;;13.43;;
2944;SDS011;1482;51.398;7.128;2023-04-15T03:45:28;17.33;;;11.90;;
2944;SDS011;1482;51.398;7.128;2023-04-15T03:47:53;16.97;;;13.60;;
2944;SDS011;1482;51.398;7.128;2023-04-15T03:50:19;19.10;;;12.50;;
2944;SDS011;1482;51.398;7.128;2023-04-15T03:52:45;20.70;;;12.97;;
2944;SDS011;1482;51.398;7.128;2023-04-15T03:55:10;14.30;;;12.57;;
2944;SDS011;1482;51.398;7.128;2023-04-15T03:57:36;15.10;;;13.17;;
2944;SDS011;1482;51.398;7.128;2023-04-15T04:00:03;20.20;;;13.77;;
2944;SDS011;1482;51.398;7.128;2023-04-15T04:02:30;25.23;;;14.50;;
2944;SDS011;1482;51.398;7.128;2023-04-15T04:04:55;16.27;;;13.70;;
2944;SDS011;1482;51.398;7.128;2023-04-15T04:07:22;21.87;;;13.83;;
2944;SDS011;1482;51.398;7.128;2023-04-15T04:09:48;19.07;;;12.40;;
2944;SDS011;1482;51.398;7.128;2023-04-15T04:12:13;24.53;;;14.03;;
2944;SDS011;1482;51.398;7.128;2023-04-15T04:14:39;17.57;;;13.73;;
2944;SDS011;1482;51.398;7.128;2023-04-15T04:17:04;27.40;;;13.23;;
2944;SDS011;1482;51.398;7.128;2023-04-15T04:19:30;15.03;;;12.70;;
2944;SDS011;1482;51.398;7.128;2023-04-15T04:21:56;20.43;;;13.63;;
2944;SDS011;1482;51.398;7.128;2023-04-15T04:24:21;19.27;;;13.10;;
2944;SDS011;1482;51.398;7.128;2023-04-15T04:26:47;20.73;;;14.40;;
2944;SDS011;1482;51.398;7.128;2023-04-15T04:29:12;20.17;;;13.60;;
2944;SDS011;1482;51.398;7.128;2023-04-15T04:31:38;22.10;;;14.20;;
2944;SDS011;1482;51.398;7.128;2023-04-15T04:34:03;18.67;;;14.63;;
2944;SDS011;1482;51.398;7.128;2023-04-15T04:36:29;23.87;;;15.60;;
2944;SDS011;1482;51.398;7.128;2023-04-15T04:38:54;34.00;;;15.73;;
2944;SDS011;1482;51.398;7.128;2023-04-15T04:41:21;21.90;;;16.20;;
2944;SDS011;1482;51.398;7.128;2023-04-15T04:43:46;21.70;;;14.20;;
2944;SDS011;1482;51.398;7.128;2023-04-15T04:46:12;32.23;;;15.93;;
2944;SDS011;1482;51.398;7.128;2023-04-15T04:48:37;26.30;;;15.50;;
2944;SDS011;1482;51.398;7.128;2023-04-15T04:51:03;21.10;;;15.10;;
2944;SDS011;1482;51.398;7.128;2023-04-15T04:53:29;23.10;;;14.63;;
2944;SDS011;1482;51.398;7.128;2023-04-15T04:55:54;21.80;;;14.60;;
2944;SDS011;1482;51.398;7.128;2023-04-15T04:58:20;21.80;;;16.07;;
2944;SDS011;1482;51.398;7.128;2023-04-15T05:00:46;28.10;;;15.80;;
2944;SDS011;1482;51.398;7.128;2023-04-15T05:03:11;20.97;;;14.23;;
2944;SDS011;1482;51.398;7.128;2023-04-15T05:05:37;24.07;;;16.27;;
2944;SDS011;1482;51.398;7.128;2023-04-15T05:08:05;18.70;;;14.40;;
2944;SDS011;1482;51.398;7.128;2023-04-15T05:10:31;20.23;;;15.00;;
2944;SDS011;1482;51.398;7.128;2023-04-15T05:12:56;20.03;;;15.20;;
2944;SDS011;1482;51.398;7.128;2023-04-15T05:15:22;20.57;;;14.87;;
2944;SDS011;1482;51.398;7.128;2023-04-15T05:17:48;22.17;;;15.27;;
2944;SDS011;1482;51.398;7.128;2023-04-15T05:20:14;20.13;;;15.60;;
2944;SDS011;1482;51.398;7.128;2023-04-15T05:22:39;19.97;;;15.13;;
2944;SDS011;1482;51.398;7.128;2023-04-15T05:25:05;18.93;;;15.43;;
2944;SDS011;1482;51.398;7.128;2023-04-15T05:27:31;22.07;;;15.53;;
2944;SDS011;1482;51.398;7.128;2023-04-15T05:29:57;17.67;;;15.70;;
2944;SDS011;1482;51.398;7.128;2023-04-15T05:32:22;22.03;;;15.47;;
2944;SDS011;1482;51.398;7.128;2023-04-15T05:34:48;21.63;;;16.03;;
2944;SDS011;1482;51.398;7.128;2023-04-15T05:37:13;17.17;;;13.27;;
2944;SDS011;1482;51.398;7.128;2023-04-15T05:39:39;19.43;;;14.87;;
2944;SDS011;1482;51.398;7.128;2023-04-15T05:42:05;25.70;;;14.73;;
2944;SDS011;1482;51.398;7.128;2023-04-15T05:44:30;15.37;;;13.70;;
2944;SDS011;1482;51.398;7.128;2023-04-15T05:46:56;25.27;;;13.97;;
2944;SDS011;1482;51.398;7.128;2023-04-15T05:49:22;16.53;;;13.40;;
2944;SDS011;1482;51.398;7.128;2023-04-15T05:51:47;18.90;;;14.33;;
2944;SDS011;1482;51.398;7.128;2023-04-15T05:54:13;19.90;;;13.80;;
2944;SDS011;1482;51.398;7.128;2023-04-15T05:56:39;17.93;;;13.27;;
2944;SDS011;1482;51.398;7.128;2023-04-15T05:59:05;19.50;;;14.40;;
2944;SDS011;1482;51.398;7.128;2023-04-15T06:01:30;15.83;;;13.43;;
2944;SDS011;1482;51.398;7.128;2023-04-15T06:03:57;15.50;;;12.77;;
2944;SDS011;1482;51.398;7.128;2023-04-15T06:06:23;18.80;;;13.70;;
2944;SDS011;1482;51.398;7.128;2023-04-15T06:08:49;21.03;;;13.80;;
2944;SDS011;1482;51.398;7.128;2023-04-15T06:11:14;19.03;;;14.00;;
2944;SDS011;1482;51.398;7.128;2023-04-15T06:13:40;13.73;;;11.43;;
2944;SDS011;1482;51.398;7.128;2023-04-15T06:16:06;18.03;;;12.90;;
2944;SDS011;1482;51.398;7.128;2023-04-15T06:18:31;17.83;;;11.97;;
2944;SDS011;1482;51.398;7.128;2023-04-15T06:20:57;17.97;;;12.07;;
2944;SDS011;1482;51.398;7.128;2023-04-15T06:23:23;14.67;;;11.97;;
2944;SDS011;1482;51.398;7.128;2023-04-15T06:25:48;14.30;;;12.90;;
2944;SDS011;1482;51.398;7.128;2023-04-15T06:28:14;12.43;;;10.57;;
2944;SDS011;1482;51.398;7.128;2023-04-15T06:30:40;13.83;;;12.07;;
2944;SDS011;1482;51.398;7.128;2023-04-15T06:33:05;15.00;;;10.30;;
2944;SDS011;1482;51.398;7.128;2023-04-15T06:35:31;11.57;;;10.50;;
2944;SDS011;1482;51.398;7.128;2023-04-15T06:37:56;14.03;;;11.93;;
2944;SDS011;1482;51.398;7.128;2023-04-15T06:40:22;12.03;;;10.57;;
2944;SDS011;1482;51.398;7.128;2023-04-15T06:42:48;12.07;;;10.87;;
2944;SDS011;1482;51.398;7.128;2023-04-15T06:45:13;13.23;;;10.47;;
2944;SDS011;1482;51.398;7.128;2023-04-15T06:47:39;15.93;;;11.27;;
2944;SDS011;1482;51.398;7.128;2023-04-15T06:50:06;12.40;;;11.10;;
2944;SDS011;1482;51.398;7.128;2023-04-15T06:52:33;12.53;;;11.33;;
2944;SDS011;1482;51.398;7.128;2023-04-15T06:54:59;13.63;;;12.23;;
2944;SDS011;1482;51.398;7.128;2023-04-15T06:57:25;11.60;;;10.30;;
2944;SDS011;1482;51.398;7.128;2023-04-15T06:59:52;16.80;;;11.80;;
2944;SDS011;1482;51.398;7.128;2023-04-15T07:02:18;12.17;;;10.77;;
2944;SDS011;1482;51.398;7.128;2023-04-15T07:04:44;14.80;;;12.60;;
2944;SDS011;1482;51.398;7.128;2023-04-15T07:07:10;12.20;;;10.80;;
2944;SDS011;1482;51.398;7.128;2023-04-15T07:09:36;12.30;;;11.00;;
2944;SDS011;1482;51.398;7.128;2023-04-15T07:12:02;21.20;;;11.57;;
2944;SDS011;1482;51.398;7.128;2023-04-15T07:14:28;13.90;;;10.13;;
2944;SDS011;1482;51.398;7.128;2023-04-15T07:16:54;15.47;;;12.30;;
2944;SDS011;1482;51.398;7.128;2023-04-15T07:19:20;16.77;;;12.90;;
2944;SDS011;1482;51.398;7.128;2023-04-15T07:21:46;13.10;;;11.90;;
2944;SDS011;1482;51.398;7.128;2023-04-15T07:24:11;15.40;;;12.30;;
2944;SDS011;1482;51.398;7.128;2023-04-15T07:26:40;14.00;;;12.20;;
2944;SDS011;1482;51.398;7.128;2023-04-15T07:29:06;16.60;;;13.23;;
2944;SDS011;1482;51.398;7.128;2023-04-15T07:31:32;14.23;;;12.83;;
2944;SDS011;1482;51.398;7.128;2023-04-15T07:33:57;15.87;;;14.23;;
2944;SDS011;1482;51.398;7.128;2023-04-15T07:36:23;17.30;;;13.10;;
2944;SDS011;1482;51.398;7.128;2023-04-15T07:38:49;17.90;;;16.00;;
2944;SDS011;1482;51.398;7.128;2023-04-15T07:41:14;16.90;;;13.40;;
2944;SDS011;1482;51.398;7.128;2023-04-15T07:43:40;20.90;;;13.90;;
2944;SDS011;1482;51.398;7.128;2023-04-15T07:46:06;16.63;;;13.07;;
2944;SDS011;1482;51.398;7.128;2023-04-15T07:48:32;16.60;;;13.00;;
2944;SDS011;1482;51.398;7.128;2023-04-15T07:50:58;19.80;;;12.83;;
2944;SDS011;1482;51.398;7.128;2023-04-15T07:53:24;14.07;;;12.57;;
2944;SDS011;1482;51.398;7.128;2023-04-15T07:55:50;13.97;;;12.43;;
2944;SDS011;1482;51.398;7.128;2023-04-15T07:58:15;15.07;;;12.07;;
2944;SDS011;1482;51.398;7.128;2023-04-15T08:00:41;13.33;;;11.73;;
2944;SDS011;1482;51.398;7.128;2023-04-15T08:03:06;12.80;;;11.20;;
2944;SDS011;1482;51.398;7.128;2023-04-15T08:05:32;13.57;;;12.27;;
2944;SDS011;1482;51.398;7.128;2023-04-15T08:07:58;14.37;;;11.53;;
2944;SDS011;1482;51.398;7.128;2023-04-15T08:10:23;13.90;;;12.50;;
2944;SDS011;1482;51.398;7.128;2023-04-15T08:12:49;14.70;;;11.80;;
2944;SDS011;1482;51.398;7.128;2023-04-15T08:15:18;13.13;;;11.73;;
2944;SDS011;1482;51.398;7.128;2023-04-15T08:17:44;11.07;;;9.90;;
2944;SDS011;1482;51.398;7.128;2023-04-15T08:20:10;11.17;;;10.07;;
2944;SDS011;1482;51.398;7.128;2023-04-15T08:22:37;14.00;;;12.13;;
2944;SDS011;1482;51.398;7.128;2023-04-15T08:25:03;11.87;;;10.63;;
2944;SDS011;1482;51.398;7.128;2023-04-15T08:27:28;12.10;;;9.40;;
2944;SDS011;1482;51.398;7.128;2023-04-15T08:29:55;21.27;;;8.70;;
2944;SDS011;1482;51.398;7.128;2023-04-15T08:32:20;9.77;;;6.60;;
2944;SDS011;1482;51.398;7.128;2023-04-15T08:34:46;5.50;;;5.00;;
2944;SDS011;1482;51.398;7.128;2023-04-15T08:37:12;6.13;;;5.60;;
2944;SDS011;1482;51.398;7.128;2023-04-15T08:39:38;6.80;;;6.10;;
2944;SDS011;1482;51.398;7.128;2023-04-15T08:42:03;7.77;;;6.53;;
2944;SDS011;1482;51.398;7.128;2023-04-15T08:44:34;7.73;;;7.00;;
2944;SDS011;1482;51.398;7.128;2023-04-15T08:47:06;8.60;;;6.70;;
2944;SDS011;1482;51.398;7.128;2023-04-15T08:49:33;7.77;;;5.73;;
2944;SDS011;1482;51.398;7.128;2023-04-15T08:52:03;7.87;;;5.70;;
2944;SDS011;1482;51.398;7.128;2023-04-15T08:54:29;7.27;;;6.57;;
2944;SDS011;1482;51.398;7.128;2023-04-15T08:56:56;6.10;;;5.50;;
2944;SDS011;1482;51.398;7.128;2023-04-15T08:59:22;11.77;;;6.33;;
2944;SDS011;1482;51.398;7.128;2023-04-15T09:01:51;6.80;;;6.10;;
2944;SDS011;1482;51.398;7.128;2023-04-15T09:04:17;7.23;;;6.50;;
2944;SDS011;1482;51.398;7.128;2023-04-15T09:06:43;9.40;;;7.00;;
2944;SDS011;1482;51.398;7.128;2023-04-15T09:09:08;7.03;;;6.30;;
2944;SDS011;1482;51.398;7.128;2023-04-15T09:11:34;5.73;;;5.10;;
2944;SDS011;1482;51.398;7.128;2023-04-15T09:14:00;5.43;;;4.90;;
2944;SDS011;1482;51.398;7.128;2023-04-15T09:16:26;6.63;;;5.90;;
2944;SDS011;1482;51.398;7.128;2023-04-15T09:18:52;6.40;;;5.77;;
2944;SDS011;1482;51.398;7.128;2023-04-15T09:21:18;5.40;;;4.90;;
2944;SDS011;1482;51.398;7.128;2023-04-15T09:23:54;6.57;;;5.37;;
2944;SDS011;1482;51.398;7.128;2023-04-15T09:26:34;6.47;;;5.87;;
2944;SDS011;1482;51.398;7.128;2023-04-15T09:29:08;5.10;;;4.47;;
2944;SDS011;1482;51.398;7.128;2023-04-15T09:31:34;7.03;;;4.80;;
2944;SDS011;1482;51.398;7.128;2023-04-15T09:34:01;4.90;;;4.33;;
2944;SDS011;1482;51.398;7.128;2023-04-15T09:36:27;6.73;;;5.03;;
2944;SDS011;1482;51.398;7.128;2023-04-15T09:38:55;5.07;;;4.67;;
2944;SDS011;1482;51.398;7.128;2023-04-15T09:41:21;5.60;;;4.83;;
2944;SDS011;1482;51.398;7.128;2023-04-15T09:43:47;5.30;;;4.80;;
2944;SDS011;1482;51.398;7.128;2023-04-15T09:46:12;5.33;;;4.83;;
2944;SDS011;1482;51.398;7.128;2023-04-15T09:48:38;5.13;;;4.17;;
2944;SDS011;1482;51.398;7.128;2023-04-15T09:51:04;4.63;;;4.23;;
2944;SDS011;1482;51.398;7.128;2023-04-15T09:53:31;5.27;;;4.67;;
2944;SDS011;1482;51.398;7.128;2023-04-15T09:55:58;7.60;;;4.43;;
2944;SDS011;1482;51.398;7.128;2023-04-15T09:58:28;4.73;;;4.30;;
2944;SDS011;1482;51.398;7.128;2023-04-15T10:00:56;7.10;;;6.00;;
2944;SDS011;1482;51.398;7.128;2023-04-15T10:05:48;6.37;;;5.77;;
2944;SDS011;1482;51.398;7.128;2023-04-15T10:08:20;5.67;;;5.10;;
2944;SDS011;1482;51.398;7.128;2023-04-15T10:10:50;6.40;;;5.80;;
2944;SDS011;1482;51.398;7.128;2023-04-15T10:13:17;7.50;;;5.90;;
2944;SDS011;1482;51.398;7.128;2023-04-15T10:15:59;6.80;;;6.20;;
2944;SDS011;1482;51.398;7.128;2023-04-15T10:18:31;6.50;;;5.83;;
2944;SDS011;1482;51.398;7.128;2023-04-15T10:20:59;6.13;;;5.53;;
2944;SDS011;1482;51.398;7.128;2023-04-15T10:23:25;8.70;;;5.90;;
2944;SDS011;1482;51.398;7.128;2023-04-15T10:25:52;6.77;;;6.10;;
2944;SDS011;1482;51.398;7.128;2023-04-15T10:28:18;9.33;;;6.60;;
2944;SDS011;1482;51.398;7.128;2023-04-15T10:30:46;9.67;;;6.93;;
2944;SDS011;1482;51.398;7.128;2023-04-15T10:33:13;7.40;;;5.73;;
2944;SDS011;1482;51.398;7.128;2023-04-15T10:35:41;6.20;;;5.60;;
2944;SDS011;1482;51.398;7.128;2023-04-15T10:41:10;6.10;;;5.33;;
2944;SDS011;1482;51.398;7.128;2023-04-15T10:43:54;6.53;;;5.93;;
2944;SDS011;1482;51.398;7.128;2023-04-15T10:46:21;5.13;;;4.63;;
2944;SDS011;1482;51.398;7.128;2023-04-15T10:51:35;5.93;;;5.30;;
2944;SDS011;1482;51.398;7.128;2023-04-15T10:54:06;7.63;;;6.13;;
2944;SDS011;1482;51.398;7.128;2023-04-15T10:56:34;7.17;;;6.57;;
2944;SDS011;1482;51.398;7.128;2023-04-15T10:58:59;7.30;;;6.60;;
2944;SDS011;1482;51.398;7.128;2023-04-15T11:12:45;6.13;;;5.17;;
2944;SDS011;1482;51.398;7.128;2023-04-15T11:18:13;6.10;;;5.50;;
2944;SDS011;1482;51.398;7.128;2023-04-15T11:23:14;7.07;;;5.97;;
2944;SDS011;1482;51.398;7.128;2023-04-15T11:25:42;9.50;;;6.27;;
2944;SDS011;1482;51.398;7.128;2023-04-15T11:28:08;6.17;;;5.57;;
2944;SDS011;1482;51.398;7.128;2023-04-15T11:30:34;7.50;;;6.40;;
2944;SDS011;1482;51.398;7.128;2023-04-15T11:33:05;8.47;;;6.90;;
2944;SDS011;1482;51.398;7.128;2023-04-15T11:35:32;8.23;;;6.57;;
2944;SDS011;1482;51.398;7.128;2023-04-15T11:38:01;6.70;;;6.00;;
2944;SDS011;1482;51.398;7.128;2023-04-15T11:40:33;6.90;;;6.30;;
2944;SDS011;1482;51.398;7.128;2023-04-15T11:43:02;7.33;;;6.57;;
2944;SDS011;1482;51.398;7.128;2023-04-15T11:45:34;6.30;;;5.70;;
2944;SDS011;1482;51.398;7.128;2023-04-15T11:48:10;7.53;;;5.77;;
2944;SDS011;1482;51.398;7.128;2023-04-15T11:50:37;6.47;;;5.83;;
2944;SDS011;1482;51.398;7.128;2023-04-15T11:53:07;7.23;;;6.53;;
2944;SDS011;1482;51.398;7.128;2023-04-15T11:55:40;7.50;;;6.80;;
2944;SDS011;1482;51.398;7.128;2023-04-15T12:00:44;6.10;;;5.57;;
2944;SDS011;1482;51.398;7.128;2023-04-15T12:03:17;7.87;;;6.30;;
2944;SDS011;1482;51.398;7.128;2023-04-15T12:14:02;6.80;;;6.20;;
2944;SDS011;1482;51.398;7.128;2023-04-15T12:16:41;8.10;;;7.00;;
2944;SDS011;1482;51.398;7.128;2023-04-15T12:19:10;10.00;;;8.40;;
2944;SDS011;1482;51.398;7.128;2023-04-15T12:21:42;8.20;;;7.17;;
2944;SDS011;1482;51.398;7.128;2023-04-15T12:24:10;9.40;;;7.40;;
2944;SDS011;1482;51.398;7.128;2023-04-15T12:29:16;12.53;;;7.40;;
2944;SDS011;1482;51.398;7.128;2023-04-15T12:31:52;9.00;;;6.80;;
2944;SDS011;1482;51.398;7.128;2023-04-15T12:34:29;6.70;;;5.97;;
2944;SDS011;1482;51.398;7.128;2023-04-15T12:36:56;6.67;;;5.53;;
2944;SDS011;1482;51.398;7.128;2023-04-15T12:39:24;6.73;;;6.03;;
2944;SDS011;1482;51.398;7.128;2023-04-15T12:41:52;5.43;;;4.90;;
2944;SDS011;1482;51.398;7.128;2023-04-15T12:44:18;5.80;;;5.30;;
2944;SDS011;1482;51.398;7.128;2023-04-15T12:46:45;6.13;;;5.53;;
2944;SDS011;1482;51.398;7.128;2023-04-15T12:49:10;7.30;;;5.87;;
2944;SDS011;1482;51.398;7.128;2023-04-15T12:51:38;7.80;;;5.87;;
2944;SDS011;1482;51.398;7.128;2023-04-15T12:54:04;8.37;;;6.03;;
2944;SDS011;1482;51.398;7.128;2023-04-15T12:56:29;6.40;;;5.30;;
2944;SDS011;1482;51.398;7.128;2023-04-15T12:58:55;8.53;;;5.80;;
2944;SDS011;1482;51.398;7.128;2023-04-15T13:01:21;5.37;;;4.87;;
2944;SDS011;1482;51.398;7.128;2023-04-15T13:03:47;5.70;;;4.80;;
2944;SDS011;1482;51.398;7.128;2023-04-15T13:06:14;9.23;;;6.30;;
2944;SDS011;1482;51.398;7.128;2023-04-15T13:08:40;7.83;;;5.90;;
2944;SDS011;1482;51.398;7.128;2023-04-15T13:11:06;7.30;;;5.73;;
2944;SDS011;1482;51.398;7.128;2023-04-15T13:13:32;7.03;;;6.33;;
2944;SDS011;1482;51.398;7.128;2023-04-15T13:15:58;6.70;;;6.10;;
2944;SDS011;1482;51.398;7.128;2023-04-15T13:18:24;9.50;;;6.30;;
2944;SDS011;1482;51.398;7.128;2023-04-15T13:20:49;7.63;;;6.00;;
2944;SDS011;1482;51.398;7.128;2023-04-15T13:23:15;5.50;;;5.00;;
2944;SDS011;1482;51.398;7.128;2023-04-15T13:25:41;7.50;;;5.50;;
2944;SDS011;1482;51.398;7.128;2023-04-15T13:28:07;6.87;;;6.13;;
2944;SDS011;1482;51.398;7.128;2023-04-15T13:30:33;5.13;;;4.63;;
2944;SDS011;1482;51.398;7.128;2023-04-15T13:32:59;5.30;;;4.80;;
2944;SDS011;1482;51.398;7.128;2023-04-15T13:35:25;6.57;;;5.37;;
2944;SDS011;1482;51.398;7.128;2023-04-15T13:37:50;6.17;;;4.73;;
2944;SDS011;1482;51.398;7.128;2023-04-15T13:40:18;6.07;;;5.40;;
2944;SDS011;1482;51.398;7.128;2023-04-15T13:42:44;6.73;;;5.43;;
2944;SDS011;1482;51.398;7.128;2023-04-15T13:45:11;6.57;;;5.00;;
2944;SDS011;1482;51.398;7.128;2023-04-15T13:47:36;5.40;;;4.90;;
2944;SDS011;1482;51.398;7.128;2023-04-15T13:50:02;6.43;;;5.73;;
2944;SDS011;1482;51.398;7.128;2023-04-15T13:52:28;7.37;;;6.00;;
2944;SDS011;1482;51.398;7.128;2023-04-15T13:54:53;7.00;;;6.40;;
2944;SDS011;1482;51.398;7.128;2023-04-15T13:57:19;6.77;;;5.67;;
2944;SDS011;1482;51.398;7.128;2023-04-15T13:59:44;10.00;;;5.57;;
2944;SDS011;1482;51.398;7.128;2023-04-15T14:02:10;6.00;;;5.10;;
2944;SDS011;1482;51.398;7.128;2023-04-15T14:04:36;7.50;;;6.23;;
2944;SDS011;1482;51.398;7.128;2023-04-15T14:07:02;6.90;;;5.37;;
2944;SDS011;1482;51.398;7.128;2023-04-15T14:09:28;6.07;;;5.27;;
2944;SDS011;1482;51.398;7.128;2023-04-15T14:11:53;5.80;;;4.70;;
2944;SDS011;1482;51.398;7.128;2023-04-15T14:14:20;6.70;;;6.00;;
2944;SDS011;1482;51.398;7.128;2023-04-15T14:16:45;6.07;;;5.47;;
2944;SDS011;1482;51.398;7.128;2023-04-15T14:19:12;7.10;;;5.80;;
2944;SDS011;1482;51.398;7.128;2023-04-15T14:21:38;6.47;;;5.00;;
2944;SDS011;1482;51.398;7.128;2023-04-15T14:24:03;6.57;;;5.77;;
2944;SDS011;1482;51.398;7.128;2023-04-15T14:26:29;6.17;;;5.57;;
2944;SDS011;1482;51.398;7.128;2023-04-15T14:28:55;6.97;;;6.30;;
2944;SDS011;1482;51.398;7.128;2023-04-15T14:31:20;6.17;;;5.57;;
2944;SDS011;1482;51.398;7.128;2023-04-15T14:33:46;10.47;;;5.87;;
2944;SDS011;1482;51.398;7.128;2023-04-15T14:36:11;6.83;;;6.17;;
2944;SDS011;1482;51.398;7.128;2023-04-15T14:38:37;5.93;;;5.40;;
2944;SDS011;1482;51.398;7.128;2023-04-15T14:41:04;6.83;;;6.13;;
2944;SDS011;1482;51.398;7.128;2023-04-15T14:43:30;7.27;;;6.57;;
2944;SDS011;1482;51.398;7.128;2023-04-15T14:45:57;7.97;;;5.70;;
2944;SDS011;1482;51.398;7.128;2023-04-15T14:48:22;6.90;;;6.30;;
2944;SDS011;1482;51.398;7.128;2023-04-15T14:50:48;6.00;;;5.40;;
2944;SDS011;1482;51.398;7.128;2023-04-15T14:53:13;7.43;;;6.50;;
2944;SDS011;1482;51.398;7.128;2023-04-15T14:55:39;7.47;;;6.50;;
2944;SDS011;1482;51.398;7.128;2023-04-15T14:58:05;7.90;;;6.40;;
2944;SDS011;1482;51.398;7.128;2023-04-15T15:00:32;8.07;;;6.93;;
2944;SDS011;1482;51.398;7.128;2023-04-15T15:02:58;10.10;;;7.30;;
2944;SDS011;1482;51.398;7.128;2023-04-15T15:05:23;9.93;;;6.90;;
2944;SDS011;1482;51.398;7.128;2023-04-15T15:07:49;6.07;;;5.20;;
2944;SDS011;1482;51.398;7.128;2023-04-15T15:10:15;6.17;;;5.60;;
2944;SDS011;1482;51.398;7.128;2023-04-15T15:12:40;7.23;;;6.17;;
2944;SDS011;1482;51.398;7.128;2023-04-15T15:15:06;6.90;;;6.10;;
2944;SDS011;1482;51.398;7.128;2023-04-15T15:17:32;6.07;;;5.50;;
2944;SDS011;1482;51.398;7.128;2023-04-15T15:19:59;6.47;;;5.47;;
2944;SDS011;1482;51.398;7.128;2023-04-15T15:22:24;6.37;;;5.50;;
2944;SDS011;1482;51.398;7.128;2023-04-15T15:24:50;8.43;;;6.23;;
2944;SDS011;1482;51.398;7.128;2023-04-15T15:27:16;7.53;;;6.03;;
2944;SDS011;1482;51.398;7.128;2023-04-15T15:29:41;9.13;;;6.67;;
2944;SDS011;1482;51.398;7.128;2023-04-15T15:32:07;9.83;;;6.00;;
2944;SDS011;1482;51.398;7.128;2023-04-15T15:34:33;6.63;;;6.00;;